Time;durP1;ratioP1;P1;durP2;ratioP2;P2;SDS_P1;SDS_P2;PMS_P1;PMS_P2;Temp;Humidity;BMP_temperature;BMP_pressure;BME280_temperature;BME280_humidity;BME280_pressure;Samples;Min_cycle;Max_cycle;Signal;HPM_P1;HPM_P2
2022/01/04 00:01:09;;;;;;;4.30;2.73;;;;;;;10.18;56.51;96815.84;4969915;28;20258;-85
2022/01/04 00:03:36;;;;;;;2.70;1.93;;;;;;;10.35;55.58;96821.03;4952619;29;20201;-84
2022/01/04 00:06:03;;;;;;;4.67;2.30;;;;;;;10.71;56.03;96891.78;4952772;28;20303;-87
2022/01/04 00:09:10;;;;;;;5.90;3.53;;;;;;;10.61;56.54;96888.78;4950064;29;20193;-85
2022/01/04 00:15:32;;;;;;;6.53;3.57;;;;;;;9.43;59.42;96779.69;4972628;28;20193;-86
2022/01/04 00:17:59;;;;;;;6.87;3.20;;;;;;;9.99;60.22;96861.56;4938107;28;20227;-85
2022/01/04 00:20:27;;;;;;;4.27;3.20;;;;;;;9.57;61.87;96866.94;4939603;28;20217;-84
2022/01/04 00:22:54;;;;;;;4.57;3.17;;;;;;;9.63;61.53;96885.59;4971315;28;20197;-85
2022/01/04 00:25:21;;;;;;;5.33;3.03;;;;;;;9.45;61.33;96863.16;4955716;28;20221;-85
2022/01/04 00:27:48;;;;;;;3.30;2.63;;;;;;;9.52;61.20;96863.72;4972283;28;20194;-85
2022/01/04 00:30:16;;;;;;;3.90;3.27;;;;;;;9.55;61.31;96864.44;4973078;28;20212;-85
2022/01/04 00:32:43;;;;;;;4.53;2.70;;;;;;;9.44;61.26;96856.31;4955378;28;20196;-86
2022/01/04 00:35:11;;;;;;;5.93;2.77;;;;;;;9.59;61.16;96865.97;4953857;28;20192;-88
2022/01/04 00:37:38;;;;;;;2.43;2.10;;;;;;;9.63;60.11;96875.25;4955373;28;20230;-85
2022/01/04 00:40:07;;;;;;;3.37;2.10;;;;;;;9.74;60.36;96873.03;4937381;28;20204;-86
2022/01/04 00:42:34;;;;;;;2.80;2.20;;;;;;;9.31;59.66;96800.91;4939000;28;20207;-86
2022/01/04 00:45:03;;;;;;;5.23;2.87;;;;;;;9.70;59.85;96878.41;4971778;28;20247;-86
2022/01/04 00:47:44;;;;;;;3.73;2.90;;;;;;;9.63;59.77;96857.16;4954118;28;20325;-87
2022/01/04 00:50:12;;;;;;;6.20;3.03;;;;;;;9.54;60.28;96854.97;4956076;28;20259;-87
2022/01/04 00:52:39;;;;;;;4.83;3.20;;;;;;;9.37;60.67;96844.56;4970244;28;20227;-86
2022/01/04 00:55:06;;;;;;;5.50;2.77;;;;;;;9.45;61.10;96881.25;4972714;28;20197;-87
2022/01/04 00:57:33;;;;;;;3.50;3.00;;;;;;;9.18;61.25;96833.34;4954762;28;20619;-86
2022/01/04 01:00:00;;;;;;;5.10;3.37;;;;;;;9.39;61.10;96891.00;4956143;28;20284;-86
2022/01/04 01:02:29;;;;;;;4.27;3.00;;;;;;;9.15;61.67;96863.66;4939551;28;20235;-87
2022/01/04 01:04:56;;;;;;;3.17;2.83;;;;;;;9.21;62.10;96858.22;4954745;28;20295;-86
2022/01/04 01:07:23;;;;;;;3.30;2.70;;;;;;;8.93;61.97;96832.72;4973916;28;20196;-86
2022/01/04 01:12:32;;;;;;;6.53;3.27;;;;;;;9.15;61.21;96864.47;4972220;28;20657;-86
2022/01/04 01:15:00;;;;;;;6.43;3.10;;;;;;;9.16;61.43;96844.66;4970963;28;20197;-87
2022/01/04 01:17:29;;;;;;;5.67;3.10;;;;;;;9.05;60.67;96819.28;4971339;28;20244;-87
2022/01/04 01:19:57;;;;;;;3.43;2.93;;;;;;;9.60;59.66;96867.63;4954852;28;20677;-86
2022/01/04 01:22:24;;;;;;;3.37;2.53;;;;;;;9.56;59.32;96842.81;4953568;28;20235;-85
2022/01/04 01:24:51;;;;;;;4.53;3.13;;;;;;;9.13;59.08;96765.53;4939397;28;20614;-86
2022/01/04 01:27:18;;;;;;;4.93;2.90;;;;;;;9.64;58.85;96853.66;4939712;28;20263;-85
2022/01/04 01:29:46;;;;;;;5.27;2.27;;;;;;;9.96;57.27;96880.66;4974184;28;20208;-87
2022/01/04 01:32:13;;;;;;;6.10;2.43;;;;;;;9.88;57.21;96872.41;4956238;28;21011;-85
2022/01/04 01:34:42;;;;;;;4.57;2.77;;;;;;;9.94;57.53;96884.22;4971152;28;20188;-84
2022/01/04 01:37:09;;;;;;;2.60;2.23;;;;;;;9.60;57.67;96823.69;4971614;28;20196;-85
2022/01/04 01:39:36;;;;;;;4.37;2.50;;;;;;;9.76;57.50;96847.97;4953133;28;20590;-85
2022/01/04 01:42:04;;;;;;;3.37;2.27;;;;;;;9.74;57.65;96843.75;4954169;28;20603;-85
2022/01/04 01:44:32;;;;;;;5.77;2.20;;;;;;;9.65;56.40;96800.22;4969447;28;20259;-85
2022/01/04 01:46:59;;;;;;;3.13;2.10;;;;;;;9.53;56.22;96793.88;4970618;28;20266;-84
2022/01/04 01:49:27;;;;;;;4.60;2.50;;;;;;;9.46;55.79;96770.97;4951878;28;20224;-86
2022/01/04 01:51:55;;;;;;;2.93;2.07;;;;;;;9.47;54.62;96776.06;4952969;28;20188;-87
2022/01/04 01:54:22;;;;;;;2.90;1.87;;;;;;;9.94;52.74;96802.28;4951421;28;20197;-85
2022/01/04 01:56:51;;;;;;;3.70;2.80;;;;;;;10.49;52.85;96872.97;4970038;28;20623;-84
2022/01/04 01:59:19;;;;;;;4.20;2.07;;;;;;;10.50;52.46;96860.00;4969992;28;20202;-84
2022/01/04 02:01:46;;;;;;;2.87;2.00;;;;;;;10.38;53.05;96839.88;4968794;28;20681;-85
2022/01/04 02:04:14;;;;;;;2.73;1.90;;;;;;;9.96;53.61;96797.88;4970076;28;20216;-84
2022/01/04 02:06:41;;;;;;;2.47;1.80;;;;;;;9.94;53.44;96812.63;4951485;28;20254;-84
2022/01/04 02:09:08;;;;;;;3.23;1.70;;;;;;;10.02;53.08;96827.78;4970217;28;20191;-84
2022/01/04 02:11:38;;;;;;;3.80;1.70;;;;;;;10.46;51.70;96875.75;4951093;28;20885;-85
2022/01/04 02:14:05;;;;;;;1.80;1.30;;;;;;;10.41;49.36;96807.81;4953278;28;21764;-84
2022/01/04 02:16:32;;;;;;;1.40;1.30;;;;;;;10.47;49.51;96821.28;4952906;28;20201;-84
2022/01/04 02:19:01;;;;;;;2.63;1.40;;;;;;;10.86;49.59;96865.09;4951732;28;20198;-84
2022/01/04 02:21:29;;;;;;;1.53;1.10;;;;;;;11.03;48.13;96867.69;4970698;28;20217;-85
2022/01/04 02:23:58;;;;;;;2.10;1.10;;;;;;;10.92;47.75;96838.88;4968599;28;20313;-84
2022/01/04 02:27:01;;;;;;;1.53;1.33;;;;;;;10.99;48.93;96873.94;4970444;28;20309;-86
2022/01/04 02:30:22;;;;;;;1.83;1.37;;;;;;;11.01;48.94;96886.81;4950551;28;20274;-83
2022/01/04 02:33:42;;;;;;;1.43;1.20;;;;;;;10.88;49.54;96883.19;4949945;28;20201;-84
2022/01/04 02:37:03;;;;;;;1.77;1.40;;;;;;;10.96;48.96;96886.22;4950027;28;20570;-90
2022/01/04 02:39:44;;;;;;;1.80;1.63;;;;;;;10.84;49.09;96874.69;4951085;28;20202;-84
2022/01/04 02:42:11;;;;;;;1.83;1.30;;;;;;;10.39;49.09;96792.34;4968648;28;20198;-84
2022/01/04 02:44:38;;;;;;;1.40;1.17;;;;;;;10.88;49.03;96883.19;4935835;28;20199;-85
2022/01/04 02:47:05;;;;;;;1.40;1.30;;;;;;;10.58;49.48;96854.44;4920635;28;20234;-84
2022/01/04 02:49:32;;;;;;;1.70;1.40;;;;;;;10.31;50.02;96814.34;4968108;28;20280;-84
2022/01/04 02:52:00;;;;;;;1.33;1.17;;;;;;;10.68;50.13;96889.31;4951827;28;20268;-85
2022/01/04 02:54:27;;;;;;;2.90;1.40;;;;;;;10.54;49.95;96874.47;4967978;28;20207;-85
2022/01/04 02:56:56;;;;;;;3.57;1.33;;;;;;;10.26;49.51;96809.38;4952255;28;20630;-85
2022/01/04 02:59:23;;;;;;;1.40;1.30;;;;;;;10.77;49.32;96890.63;4951272;28;20190;-86
2022/01/04 03:01:50;;;;;;;2.70;1.13;;;;;;;10.83;49.28;96904.13;4968607;28;20189;-84
2022/01/04 03:04:18;;;;;;;2.03;1.20;;;;;;;10.49;49.23;96839.31;4969300;28;20519;-85
2022/01/04 03:06:45;;;;;;;2.03;1.30;;;;;;;10.63;49.19;96870.59;4950222;28;20671;-85
2022/01/04 03:09:12;;;;;;;1.20;1.10;;;;;;;10.79;49.73;96893.97;4968742;28;20204;-85
2022/01/04 03:11:39;;;;;;;3.57;2.30;;;;;;;10.77;49.78;96894.06;4933739;28;20201;-84
2022/01/04 03:14:06;;;;;;;3.40;1.90;;;;;;;9.92;50.58;96774.81;4951997;28;20680;-86
2022/01/04 03:16:35;;;;;;;3.87;1.60;;;;;;;10.08;50.85;96832.66;4950361;28;20679;-84
2022/01/04 03:19:05;;;;;;;3.80;1.43;;;;;;;9.83;51.61;96786.41;4968621;28;20632;-86
2022/01/04 03:21:34;;;;;;;3.37;1.67;;;;;;;9.73;51.65;96770.50;4969413;28;20223;-85
2022/01/04 03:24:04;;;;;;;3.03;1.40;;;;;;;10.36;52.14;96901.22;4951666;28;20184;-85
2022/01/04 03:26:31;;;;;;;2.90;1.67;;;;;;;10.32;52.78;96909.22;4952468;28;20251;-85
2022/01/04 03:28:59;;;;;;;2.40;1.40;;;;;;;10.26;52.90;96905.13;4949884;28;20230;-87
2022/01/04 03:31:27;;;;;;;3.37;1.77;;;;;;;10.19;53.39;96903.75;4952049;28;20703;-85
2022/01/04 03:33:55;;;;;;;3.03;1.90;;;;;;;9.98;54.13;96893.50;4968145;28;20186;-85
2022/01/04 03:36:24;;;;;;;3.10;1.80;;;;;;;9.61;55.03;96858.13;4937471;28;20204;-86
2022/01/04 03:38:53;;;;;;;2.43;1.80;;;;;;;9.82;55.43;96907.16;4973355;28;20221;-87
2022/01/04 03:41:22;;;;;;;3.93;1.97;;;;;;;9.61;56.01;96910.69;4971142;28;20607;-85
2022/01/04 03:43:50;;;;;;;3.33;2.10;;;;;;;9.43;56.47;96911.50;4972657;28;20220;-84
2022/01/04 03:46:18;;;;;;;2.60;1.50;;;;;;;8.51;56.85;96750.19;4971058;28;20315;-85
2022/01/04 03:48:46;;;;;;;4.13;2.03;;;;;;;9.22;56.48;96881.41;4972811;28;20201;-84
2022/01/04 03:51:13;;;;;;;2.60;2.10;;;;;;;9.19;56.71;96870.38;4972944;28;20189;-86
2022/01/04 03:53:41;;;;;;;4.13;2.57;;;;;;;9.10;57.19;96894.84;4973049;28;20191;-84
2022/01/04 03:56:08;;;;;;;3.60;2.17;;;;;;;9.10;56.75;96927.59;4973436;28;20320;-85
2022/01/04 03:58:36;;;;;;;4.27;2.50;;;;;;;8.88;57.38;96894.88;4971529;28;20196;-84
2022/01/04 04:01:03;;;;;;;5.97;2.57;;;;;;;8.84;56.83;96890.75;4955278;28;20413;-84
2022/01/04 04:03:33;;;;;;;4.80;2.63;;;;;;;9.16;56.80;96937.66;4953549;28;20204;-84
2022/01/04 04:06:00;;;;;;;8.00;4.13;;;;;;;8.89;56.44;96893.16;4954707;28;20313;-84
2022/01/04 04:08:28;;;;;;;5.77;3.90;;;;;;;9.06;56.62;96926.03;4971274;28;20652;-85
2022/01/04 04:10:55;;;;;;;6.40;3.10;;;;;;;8.86;56.87;96893.31;4971645;28;20204;-84
2022/01/04 04:13:22;;;;;;;5.77;3.37;;;;;;;9.01;57.32;96936.53;4954739;28;20250;-84
2022/01/04 04:15:50;;;;;;;13.30;3.43;;;;;;;8.93;56.88;96905.03;4953276;28;20244;-84
2022/01/04 04:18:17;;;;;;;5.27;2.93;;;;;;;8.86;56.63;96875.22;4939247;28;20185;-84
2022/01/04 04:20:45;;;;;;;6.83;3.33;;;;;;;9.09;57.46;96918.16;4970437;28;20196;-83
2022/01/04 04:23:12;;;;;;;5.63;3.30;;;;;;;8.43;56.98;96842.56;4957670;28;20189;-84
2022/01/04 04:25:40;;;;;;;4.70;3.43;;;;;;;8.91;57.35;96917.16;4974988;28;20263;-84
2022/01/04 04:28:07;;;;;;;4.27;3.00;;;;;;;9.01;57.13;96923.63;4972411;28;20200;-84
2022/01/04 04:30:34;;;;;;;4.83;2.40;;;;;;;9.16;56.72;96930.75;4954557;28;20204;-83
2022/01/04 04:33:02;;;;;;;6.17;2.90;;;;;;;9.01;56.85;96923.63;4971120;28;20235;-85
2022/01/04 04:35:30;;;;;;;6.27;3.30;;;;;;;8.83;57.51;96896.00;4954894;28;20197;-84
2022/01/04 04:37:59;;;;;;;6.47;3.70;;;;;;;8.97;57.17;96938.44;4970199;28;20236;-80
2022/01/04 04:40:27;;;;;;;7.93;3.50;;;;;;;8.65;57.09;96889.00;4969404;28;20201;-82
2022/01/04 04:42:54;;;;;;;8.47;3.83;;;;;;;8.40;57.43;96868.50;4951673;28;20606;-86
2022/01/04 04:46:01;;;;;;;8.50;4.43;;;;;;;9.01;57.94;96954.63;4918588;29;20225;-84
2022/01/04 04:49:22;;;;;;;5.90;3.40;;;;;;;8.80;58.72;96947.75;4949523;29;20755;-84
2022/01/04 04:52:43;;;;;;;5.13;3.50;;;;;;;8.71;59.03;96945.53;4950341;29;20240;-83
2022/01/04 04:56:03;;;;;;;8.47;3.77;;;;;;;8.61;59.78;96944.22;4950561;29;20605;-84
2022/01/04 04:59:24;;;;;;;5.93;4.17;;;;;;;8.54;59.48;96958.25;4934659;29;20201;-84
2022/01/04 05:02:45;;;;;;;9.00;5.07;;;;;;;8.35;60.69;96957.28;4937142;29;20336;-84
2022/01/04 05:06:06;;;;;;;8.27;4.47;;;;;;;8.46;60.42;96968.06;4944119;29;20202;-85
2022/01/04 05:09:27;;;;;;;7.37;4.57;;;;;;;8.44;60.31;96972.44;4916930;29;20209;-84
2022/01/04 05:12:17;;;;;;;9.90;6.00;;;;;;;8.27;59.75;96928.38;4955366;28;20273;-91
2022/01/04 05:14:46;;;;;;;10.57;6.23;;;;;;;7.87;60.97;96901.47;4936093;29;20201;-87
2022/01/04 05:17:18;;;;;;;11.53;6.40;;;;;;;7.08;61.49;96813.38;4960295;28;20257;-91
2022/01/04 05:19:45;;;;;;;9.50;7.03;;;;;;;7.98;62.01;96966.38;4967644;28;20189;-84
2022/01/04 05:22:13;;;;;;;12.20;7.50;;;;;;;7.76;61.68;96944.88;4966697;28;20267;-84
2022/01/04 05:24:40;;;;;;;14.03;7.20;;;;;;;7.70;62.14;96944.25;4938471;28;20200;-85
2022/01/04 05:27:09;;;;;;;19.50;9.70;;;;;;;7.63;61.81;96947.91;4969723;28;20319;-86
2022/01/04 05:29:36;;;;;;;15.57;8.27;;;;;;;7.73;62.38;96986.19;4970163;28;20192;-85
2022/01/04 05:32:04;;;;;;;13.83;7.23;;;;;;;7.39;63.16;96939.34;4969811;28;20212;-84
2022/01/04 05:34:31;;;;;;;16.43;9.07;;;;;;;7.46;63.01;96945.94;4969051;28;20758;-83
2022/01/04 05:36:58;;;;;;;14.50;8.27;;;;;;;7.26;62.79;96933.78;4951364;28;20284;-83
2022/01/04 05:39:25;;;;;;;19.33;8.50;;;;;;;7.43;62.85;96958.09;4951789;28;20276;-85
2022/01/04 05:41:52;;;;;;;18.97;9.63;;;;;;;7.54;63.27;96987.75;4970124;28;20668;-83
2022/01/04 05:44:19;;;;;;;26.43;16.40;;;;;;;7.30;64.28;96957.66;4969151;28;20196;-84
2022/01/04 05:46:47;;;;;;;13.83;8.60;;;;;;;7.54;63.31;96969.72;4969956;28;20735;-84
2022/01/04 05:49:14;;;;;;;15.00;10.13;;;;;;;7.58;63.66;96961.00;4970163;28;20196;-84
2022/01/04 05:51:42;;;;;;;15.73;9.27;;;;;;;7.04;63.58;96898.50;4968749;28;20190;-83
2022/01/04 05:54:10;;;;;;;19.63;10.57;;;;;;;7.20;62.92;96933.13;4970159;28;20216;-83
2022/01/04 05:56:37;;;;;;;13.53;7.70;;;;;;;7.32;63.84;96986.78;4969284;28;20203;-83
2022/01/04 05:59:04;;;;;;;14.50;10.20;;;;;;;7.39;63.27;96989.13;4969765;28;20279;-84
2022/01/04 06:01:31;;;;;;;14.43;9.43;;;;;;;7.01;64.42;96961.22;4952810;28;20206;-84
2022/01/04 06:04:00;;;;;;;11.30;6.70;;;;;;;6.63;63.88;96888.75;4969633;28;20202;-84
2022/01/04 06:06:27;;;;;;;8.17;5.33;;;;;;;7.12;64.45;96996.94;4970288;28;20231;-85
2022/01/04 06:08:54;;;;;;;8.27;4.50;;;;;;;7.08;63.57;96997.91;4951367;28;20204;-83
2022/01/04 06:16:53;;;;;;;6.07;4.27;;;;;;;6.37;65.02;96911.00;4970216;28;20206;-83
2022/01/04 06:19:20;;;;;;;9.20;4.50;;;;;;;6.83;64.34;96972.13;4935824;28;20673;-83
2022/01/04 06:21:47;;;;;;;5.77;3.80;;;;;;;6.82;63.84;96985.06;4950961;28;20199;-84
2022/01/04 06:24:15;;;;;;;6.10;4.27;;;;;;;6.66;64.64;96964.09;4970090;28;20290;-84
2022/01/04 06:26:42;;;;;;;9.17;4.60;;;;;;;6.65;65.91;97008.75;4968453;28;20725;-83
2022/01/04 06:29:11;;;;;;;7.10;4.07;;;;;;;6.42;65.43;96936.56;4952323;28;20198;-83
2022/01/04 06:31:42;;;;;;;5.73;3.43;;;;;;;6.54;64.61;96938.75;4968596;28;20191;-83
2022/01/04 06:34:09;;;;;;;5.67;3.50;;;;;;;6.40;63.81;96916.06;4951761;28;20202;-83
2022/01/04 06:36:36;;;;;;;6.50;3.47;;;;;;;6.54;65.13;96923.31;4968756;28;20208;-83
2022/01/04 06:39:04;;;;;;;5.30;3.50;;;;;;;7.20;64.00;97006.09;4968738;28;20228;-83
2022/01/04 06:41:32;;;;;;;6.83;4.07;;;;;;;7.30;63.39;97014.34;4952556;28;20642;-84
2022/01/04 06:43:59;;;;;;;13.47;5.23;;;;;;;7.32;63.62;97018.56;4951357;28;20588;-83
2022/01/04 06:46:27;;;;;;;6.67;4.13;;;;;;;7.34;62.54;96988.44;4969946;28;20691;-82
2022/01/04 06:48:54;;;;;;;9.80;4.80;;;;;;;6.99;62.05;96942.41;4968098;28;20702;-83
2022/01/04 06:51:21;;;;;;;14.37;6.10;;;;;;;6.89;63.51;96941.03;4952976;28;20194;-83
2022/01/04 06:53:49;;;;;;;10.10;5.87;;;;;;;7.44;62.21;97013.91;4936496;28;20204;-83
2022/01/04 06:56:18;;;;;;;13.03;5.70;;;;;;;7.61;61.95;97027.88;4952113;28;20243;-83
2022/01/04 06:58:45;;;;;;;7.40;4.73;;;;;;;7.51;60.82;96967.25;4951891;28;20211;-84
2022/01/04 07:01:12;;;;;;;5.00;4.00;;;;;;;7.46;60.65;96933.06;4968252;28;20192;-84
2022/01/04 07:03:41;;;;;;;7.83;4.00;;;;;;;8.04;59.71;97010.00;4969619;28;20195;-85
2022/01/04 07:06:08;;;;;;;7.80;3.90;;;;;;;7.21;58.24;96860.16;4952242;28;20210;-84
2022/01/04 07:09:15;;;;;;;6.13;3.00;;;;;;;8.43;58.18;97045.59;4970046;28;20680;-85
2022/01/04 07:12:36;;;;;;;7.37;4.10;;;;;;;8.62;57.14;97038.81;4969530;28;20575;-84
2022/01/04 07:15:57;;;;;;;9.07;5.10;;;;;;;8.66;57.67;97019.72;4952124;28;20336;-84
2022/01/04 07:19:17;;;;;;;21.93;10.33;;;;;;;8.80;59.00;97033.78;4952379;28;20246;-85
2022/01/04 07:22:38;;;;;;;22.03;11.03;;;;;;;8.94;59.75;97048.75;4967782;28;20292;-83
2022/01/04 07:26:00;;;;;;;12.83;8.30;;;;;;;9.00;59.33;97057.09;4972115;28;20197;-81
2022/01/04 07:29:21;;;;;;;11.77;8.10;;;;;;;9.01;59.41;97055.34;4939764;28;20311;-83
2022/01/04 07:32:41;;;;;;;9.90;5.60;;;;;;;9.25;58.11;97045.81;4941393;28;20209;-82
2022/01/04 07:36:02;;;;;;;10.13;5.73;;;;;;;9.39;57.70;97046.94;4975976;28;20195;-81
2022/01/04 07:39:24;;;;;;;8.37;5.63;;;;;;;9.34;57.62;97046.25;4975667;28;20196;-83
2022/01/04 07:42:45;;;;;;;10.63;5.93;;;;;;;9.36;58.08;97025.50;4952266;28;20280;-83
2022/01/04 07:46:09;;;;;;;12.90;6.43;;;;;;;9.49;58.13;97037.88;4949884;28;20232;-83
2022/01/04 07:49:29;;;;;;;15.83;9.13;;;;;;;9.66;57.85;97032.84;4971231;28;20200;-84
2022/01/04 07:52:51;;;;;;;18.67;7.37;;;;;;;9.62;57.14;97010.59;4968467;28;20280;-82
2022/01/04 07:56:12;;;;;;;11.60;7.07;;;;;;;9.92;55.56;97033.47;4937820;28;20351;-82
2022/01/04 07:59:34;;;;;;;11.47;6.23;;;;;;;9.98;54.46;97028.88;4949716;28;20189;-83
2022/01/04 08:02:55;;;;;;;12.17;6.37;;;;;;;9.79;55.95;97023.66;4952854;28;20196;-83
2022/01/04 08:06:16;;;;;;;10.57;6.33;;;;;;;9.47;56.29;96951.81;4968609;28;20759;-82
2022/01/04 08:09:37;;;;;;;9.53;5.17;;;;;;;9.93;55.19;97030.00;4953153;28;20205;-85
2022/01/04 08:12:58;;;;;;;9.40;5.87;;;;;;;10.00;54.57;96995.16;4954844;28;20239;-85
2022/01/04 08:16:18;;;;;;;8.20;4.67;;;;;;;10.31;53.63;96998.09;4952244;28;20213;-82
2022/01/04 08:19:40;;;;;;;9.93;5.07;;;;;;;10.60;54.17;97015.72;4960111;28;20209;-93
2022/01/04 08:23:02;;;;;;;9.03;5.20;;;;;;;10.79;53.86;97011.38;4954227;28;20208;-87
2022/01/04 08:26:23;;;;;;;15.40;6.83;;;;;;;10.84;54.64;96980.91;4971908;28;20221;-83
2022/01/04 08:29:45;;;;;;;12.07;5.53;;;;;;;11.15;53.07;97012.22;4970918;28;20846;-87
2022/01/04 08:33:06;;;;;;;14.70;5.30;;;;;;;11.15;53.22;97007.03;4940214;28;20252;-87
2022/01/04 08:36:28;;;;;;;8.70;5.87;;;;;;;11.40;51.53;97001.47;4940590;28;20256;-83
2022/01/04 08:39:49;;;;;;;4.47;2.90;;;;;;;11.45;50.98;96999.50;4954876;28;20202;-83
2022/01/04 08:43:10;;;;;;;9.77;3.83;;;;;;;11.69;50.54;97003.50;4971930;28;20209;-83
2022/01/04 08:46:32;;;;;;;8.37;4.23;;;;;;;11.83;50.65;96995.84;4937488;28;20196;-83
2022/01/04 08:49:54;;;;;;;9.27;4.93;;;;;;;12.05;49.27;96987.78;4954755;28;20285;-84
2022/01/04 08:53:15;;;;;;;12.77;6.90;;;;;;;12.07;52.17;96988.56;4955138;28;20602;-86
2022/01/04 08:56:36;;;;;;;13.57;7.73;;;;;;;12.23;53.53;96976.44;4972931;28;20369;-84
2022/01/04 08:59:57;;;;;;;11.00;6.77;;;;;;;11.94;54.03;96958.94;4940716;28;20665;-84
2022/01/04 09:03:18;;;;;;;16.87;8.07;;;;;;;11.68;56.76;96912.78;4955578;28;20202;-83
2022/01/04 09:06:38;;;;;;;13.53;7.57;;;;;;;11.93;59.13;96968.50;4939661;28;20671;-86
2022/01/04 09:10:00;;;;;;;14.17;8.13;;;;;;;12.18;58.63;96968.03;4953546;28;20226;-86
2022/01/04 09:13:22;;;;;;;13.57;7.03;;;;;;;11.99;58.64;96964.75;4952798;28;20289;-83
2022/01/04 09:20:25;;;;;;;13.03;7.60;;;;;;;12.19;57.41;96933.38;4945086;28;20335;-83
2022/01/04 09:23:46;;;;;;;12.17;6.47;;;;;;;11.95;56.33;96852.47;4954182;28;20203;-83
2022/01/04 09:27:07;;;;;;;12.47;8.30;;;;;;;12.49;56.21;96931.69;4955080;28;20196;-84
2022/01/04 09:30:27;;;;;;;12.33;7.67;;;;;;;12.56;55.24;96929.63;4935766;28;20257;-83
2022/01/04 09:33:48;;;;;;;14.67;6.70;;;;;;;12.76;54.73;96927.56;4938164;28;20194;-87
2022/01/04 09:37:10;;;;;;;14.67;7.67;;;;;;;12.83;54.53;96926.31;4952924;28;20590;-83
2022/01/04 09:40:31;;;;;;;20.17;8.33;;;;;;;12.96;53.44;96923.88;4941709;28;20250;-83
2022/01/04 09:43:52;;;;;;;18.30;8.13;;;;;;;12.73;53.24;96873.19;4971776;28;20225;-84
2022/01/04 09:47:16;;;;;;;14.93;6.43;;;;;;;13.08;52.18;96923.19;4953353;28;20345;-83
2022/01/04 09:50:37;;;;;;;10.97;5.97;;;;;;;13.23;49.87;96924.09;4953364;28;20723;-83
2022/01/04 09:54:13;;;;;;;7.90;4.90;;;;;;;13.39;48.52;96906.66;4972781;28;20207;-85
2022/01/04 09:57:34;;;;;;;8.63;4.60;;;;;;;13.48;45.88;96922.53;4970034;28;20203;-83
2022/01/04 10:00:54;;;;;;;8.97;3.80;;;;;;;13.49;43.76;96919.03;4970125;28;20580;-82
2022/01/04 10:04:16;;;;;;;4.87;1.77;;;;;;;13.27;43.34;96912.56;4969086;28;20240;-84
2022/01/04 10:07:40;;;;;;;3.00;2.33;;;;;;;13.43;41.62;96915.94;4972087;28;20227;-85
2022/01/04 10:11:08;;;;;;;7.23;2.50;;;;;;;13.56;41.19;96922.09;4940761;28;20198;-83
2022/01/04 10:14:47;;;;;;;7.27;3.93;;;;;;;13.64;41.01;96905.06;4953706;28;20301;-85
2022/01/04 10:18:08;;;;;;;6.27;3.53;;;;;;;13.72;43.35;96910.66;4955333;28;20203;-87
2022/01/04 10:21:29;;;;;;;7.57;5.13;;;;;;;13.58;44.28;96905.44;4952610;28;20199;-83
2022/01/04 10:24:50;;;;;;;3.60;2.87;;;;;;;13.57;43.18;96892.53;4953638;28;20582;-84
2022/01/04 10:28:17;;;;;;;4.63;2.87;;;;;;;13.71;43.35;96882.97;4954021;28;20239;-83
2022/01/04 10:31:45;;;;;;;6.20;3.17;;;;;;;13.81;43.11;96865.03;4939065;28;20196;-86
2022/01/04 10:35:26;;;;;;;8.20;4.10;;;;;;;13.87;43.22;96875.91;4955615;28;20298;-83
2022/01/04 10:38:51;;;;;;;5.33;2.80;;;;;;;13.61;43.96;96871.44;4969259;28;20263;-82
2022/01/04 10:42:11;;;;;;;7.17;3.90;;;;;;;13.66;43.64;96863.38;4971619;28;20927;-84
2022/01/04 10:45:50;;;;;;;4.87;2.90;;;;;;;13.52;42.93;96855.53;4935892;28;20282;-82
2022/01/04 10:49:11;;;;;;;2.90;1.63;;;;;;;13.32;41.59;96842.91;4971544;28;20302;-84
2022/01/04 10:52:52;;;;;;;3.40;2.23;;;;;;;13.58;42.03;96835.19;4953348;28;20228;-83
2022/01/04 10:56:13;;;;;;;5.67;2.40;;;;;;;13.92;39.83;96847.00;4969838;28;20283;-86
2022/01/04 10:59:33;;;;;;;2.43;2.20;;;;;;;14.22;38.32;96847.66;4953766;28;20197;-83
2022/01/04 11:02:54;;;;;;;3.00;1.43;;;;;;;13.92;38.91;96839.19;4955966;28;20193;-86
2022/01/04 11:06:34;;;;;;;2.23;1.40;;;;;;;13.98;38.20;96840.56;4952145;28;20197;-84
2022/01/04 11:09:54;;;;;;;2.50;1.50;;;;;;;14.04;39.72;96828.00;4889549;29;20213;-84
2022/01/04 11:13:15;;;;;;;2.77;1.50;;;;;;;14.15;40.67;96830.78;4891456;29;20227;-84
2022/01/04 11:16:37;;;;;;;2.40;1.60;;;;;;;14.34;41.52;96825.25;4969113;28;20306;-87
2022/01/04 11:19:58;;;;;;;3.07;2.03;;;;;;;14.41;43.13;96819.53;4970160;28;20222;-86
2022/01/04 11:23:18;;;;;;;5.17;2.20;;;;;;;14.49;43.22;96824.25;4951011;28;20203;-83
2022/01/04 11:26:39;;;;;;;4.13;2.10;;;;;;;14.46;43.80;96821.88;4950604;28;20236;-84
2022/01/04 11:30:00;;;;;;;3.33;2.67;;;;;;;14.37;43.24;96831.09;4951445;28;20271;-84
2022/01/04 11:33:27;;;;;;;3.03;2.20;;;;;;;13.87;43.59;96797.81;4953189;28;20189;-84
2022/01/04 11:36:51;;;;;;;4.33;2.23;;;;;;;13.74;45.11;96804.72;4950971;28;20250;-85
2022/01/04 11:40:17;;;;;;;7.37;2.57;;;;;;;13.85;44.92;96806.63;4949904;28;20255;-83
2022/01/04 11:43:44;;;;;;;5.80;3.30;;;;;;;14.03;44.84;96795.09;4967087;28;20203;-87
2022/01/04 11:47:02;;;;;;;3.73;2.60;;;;;;;14.25;43.54;96792.78;4968420;28;20199;-83
2022/01/04 11:50:02;;;;;;;6.20;2.03;;;;;;;14.06;43.35;96784.47;4967753;28;20207;-84
2022/01/04 11:53:06;;;;;;;3.87;2.07;;;;;;;14.10;42.18;96787.69;4948905;28;20210;-84
2022/01/04 11:56:27;;;;;;;3.43;2.13;;;;;;;14.26;42.08;96789.22;4948832;28;20212;-84
2022/01/04 11:59:35;;;;;;;2.90;2.40;;;;;;;14.15;41.30;96783.06;4972158;28;20242;-83
2022/01/04 12:03:25;;;;;;;5.23;2.83;;;;;;;13.95;42.21;96734.84;4971021;28;20717;-83
2022/01/04 12:06:45;;;;;;;4.57;3.20;;;;;;;14.32;41.88;96778.44;4970971;28;20506;-83
2022/01/04 12:10:07;;;;;;;5.37;2.27;;;;;;;13.96;42.01;96754.75;4954650;28;20192;-82
2022/01/04 12:13:35;;;;;;;4.87;2.30;;;;;;;14.21;42.07;96775.69;4954698;28;20238;-84
2022/01/04 12:16:58;;;;;;;5.67;3.20;;;;;;;14.32;41.88;96770.63;4970568;28;20180;-82
2022/01/04 12:20:25;;;;;;;4.63;2.47;;;;;;;14.32;42.21;96765.41;4970505;28;20276;-82
2022/01/04 12:23:33;;;;;;;4.53;2.63;;;;;;;14.32;42.16;96754.19;4953063;28;20227;-84
2022/01/04 12:26:15;;;;;;;2.37;1.90;;;;;;;14.37;41.74;96767.72;4969865;28;20264;-83
2022/01/04 12:28:58;;;;;;;2.50;1.77;;;;;;;14.41;41.15;96757.00;4938740;28;20348;-84
2022/01/04 12:32:31;;;;;;;3.67;2.07;;;;;;;14.38;41.99;96765.06;4954782;28;20203;-84
2022/01/04 12:36:06;;;;;;;4.00;2.27;;;;;;;14.43;41.57;96747.31;4937612;28;20308;-83
2022/01/04 12:39:07;;;;;;;4.53;2.87;;;;;;;14.37;43.06;96755.56;4952263;28;20379;-84
2022/01/04 12:42:28;;;;;;;4.00;2.70;;;;;;;14.24;43.51;96757.22;4970936;28;20203;-84
2022/01/04 12:45:48;;;;;;;4.73;2.83;;;;;;;13.94;43.73;96681.13;4970610;28;20194;-84
2022/01/04 12:49:30;;;;;;;4.77;2.47;;;;;;;14.48;43.01;96760.91;4953691;28;20238;-85
2022/01/04 12:52:51;;;;;;;6.53;3.90;;;;;;;14.53;43.64;96753.59;4951659;28;20195;-90
2022/01/04 12:56:21;;;;;;;5.13;3.60;;;;;;;14.43;43.13;96749.94;4971565;28;20199;-83
2022/01/04 12:59:21;;;;;;;7.07;3.17;;;;;;;14.35;43.28;96748.75;4970910;28;20277;-84
2022/01/04 13:02:42;;;;;;;4.70;2.67;;;;;;;14.35;44.30;96744.41;4969417;28;20665;-84
2022/01/04 13:06:04;;;;;;;4.67;2.90;;;;;;;14.37;44.51;96752.09;4971743;28;20200;-89
2022/01/04 13:09:33;;;;;;;8.33;3.83;;;;;;;14.37;43.84;96757.31;4953775;28;20300;-84
2022/01/04 13:12:57;;;;;;;3.83;2.90;;;;;;;14.40;43.42;96746.69;4910259;29;20321;-84
2022/01/04 13:16:16;;;;;;;4.20;2.70;;;;;;;14.35;43.85;96744.41;4896250;29;20205;-84
2022/01/04 13:19:32;;;;;;;4.63;2.53;;;;;;;14.34;43.15;96739.28;4909467;29;20193;-83
2022/01/04 13:22:53;;;;;;;6.53;2.70;;;;;;;14.18;44.33;96736.78;4893286;29;20202;-86
2022/01/04 13:26:19;;;;;;;3.57;3.10;;;;;;;14.10;46.56;96741.66;4896023;29;20724;-81
2022/01/04 13:29:43;;;;;;;8.57;3.73;;;;;;;13.45;47.12;96626.19;4895174;29;20211;-83
2022/01/04 13:33:05;;;;;;;5.60;3.50;;;;;;;14.15;48.14;96742.22;4897146;29;20207;-86
2022/01/04 13:36:29;;;;;;;4.10;3.47;;;;;;;14.18;48.75;96742.00;4893826;29;20239;-84
2022/01/04 13:39:49;;;;;;;6.57;3.97;;;;;;;13.93;50.58;96736.69;4911262;29;20201;-90
2022/01/04 13:43:25;;;;;;;7.97;4.40;;;;;;;13.87;51.10;96724.06;4924360;28;20275;-82
2022/01/04 13:46:45;;;;;;;8.43;4.90;;;;;;;13.91;52.85;96741.16;4971751;28;20615;-84
2022/01/04 13:50:07;;;;;;;7.03;4.27;;;;;;;13.72;53.58;96738.88;4953184;28;20659;-84
2022/01/04 13:53:39;;;;;;;10.00;4.83;;;;;;;13.64;54.49;96728.13;4952962;28;20253;-86